sensor_id;sensor_type;location;lat;lon;timestamp;temperature;humidity
27162;DHT22;54464;50.558;9.704;2024-03-23T00:53:44;8.60;99.90
27162;DHT22;54464;50.558;9.704;2024-03-23T00:56:09;8.70;99.90
27162;DHT22;54464;50.558;9.704;2024-03-23T00:58:35;8.80;99.90
27162;DHT22;54464;50.558;9.704;2024-03-23T01:01:01;8.80;99.90
27162;DHT22;54464;50.558;9.704;2024-03-23T01:03:29;8.80;99.90
27162;DHT22;54464;50.558;9.704;2024-03-23T01:05:54;8.70;99.90
27162;DHT22;54464;50.558;9.704;2024-03-23T01:08:23;8.60;99.90
27162;DHT22;54464;50.558;9.704;2024-03-23T01:10:56;8.60;99.90
27162;DHT22;54464;50.558;9.704;2024-03-23T01:13:22;8.60;99.90
27162;DHT22;54464;50.558;9.704;2024-03-23T01:15:49;8.50;99.90
27162;DHT22;54464;50.558;9.704;2024-03-23T01:18:14;8.60;99.90
27162;DHT22;54464;50.558;9.704;2024-03-23T01:20:40;8.60;99.90
27162;DHT22;54464;50.558;9.704;2024-03-23T01:23:05;8.70;99.90
27162;DHT22;54464;50.558;9.704;2024-03-23T01:25:31;8.60;99.90
27162;DHT22;54464;50.558;9.704;2024-03-23T01:27:56;8.60;99.90
27162;DHT22;54464;50.558;9.704;2024-03-23T01:30:22;8.60;99.90
27162;DHT22;54464;50.558;9.704;2024-03-23T01:32:47;8.60;99.90
27162;DHT22;54464;50.558;9.704;2024-03-23T01:35:13;8.60;99.90
27162;DHT22;54464;50.558;9.704;2024-03-23T01:37:38;8.50;99.90
27162;DHT22;54464;50.558;9.704;2024-03-23T01:40:04;8.50;99.90
27162;DHT22;54464;50.558;9.704;2024-03-23T01:42:30;8.50;99.90
27162;DHT22;54464;50.558;9.704;2024-03-23T01:44:56;8.60;99.90
27162;DHT22;54464;50.558;9.704;2024-03-23T01:47:21;8.60;99.90
27162;DHT22;54464;50.558;9.704;2024-03-23T01:49:47;8.60;99.90
27162;DHT22;54464;50.558;9.704;2024-03-23T01:52:12;8.50;99.90
27162;DHT22;54464;50.558;9.704;2024-03-23T01:54:38;8.50;99.90
27162;DHT22;54464;50.558;9.704;2024-03-23T01:57:04;8.50;99.90
27162;DHT22;54464;50.558;9.704;2024-03-23T01:59:30;8.50;99.90
27162;DHT22;54464;50.558;9.704;2024-03-23T02:01:56;8.50;99.90
27162;DHT22;54464;50.558;9.704;2024-03-23T02:04:21;8.50;99.90
27162;DHT22;54464;50.558;9.704;2024-03-23T02:06:47;8.70;99.90
27162;DHT22;54464;50.558;9.704;2024-03-23T02:09:13;8.80;99.90
27162;DHT22;54464;50.558;9.704;2024-03-23T02:11:39;8.60;99.90
27162;DHT22;54464;50.558;9.704;2024-03-23T02:14:04;8.60;99.90
27162;DHT22;54464;50.558;9.704;2024-03-23T02:16:30;8.40;99.90
27162;DHT22;54464;50.558;9.704;2024-03-23T02:18:56;8.20;99.90
27162;DHT22;54464;50.558;9.704;2024-03-23T02:21:21;8.20;99.90
27162;DHT22;54464;50.558;9.704;2024-03-23T02:23:47;8.20;99.90
27162;DHT22;54464;50.558;9.704;2024-03-23T02:26:12;8.30;99.90
27162;DHT22;54464;50.558;9.704;2024-03-23T02:28:39;8.20;99.90
27162;DHT22;54464;50.558;9.704;2024-03-23T02:31:05;8.30;99.90
27162;DHT22;54464;50.558;9.704;2024-03-23T02:33:30;8.20;99.90
27162;DHT22;54464;50.558;9.704;2024-03-23T02:35:57;8.30;99.90
27162;DHT22;54464;50.558;9.704;2024-03-23T02:38:23;8.20;99.90
27162;DHT22;54464;50.558;9.704;2024-03-23T02:40:48;8.10;99.90
27162;DHT22;54464;50.558;9.704;2024-03-23T02:43:14;8.10;99.90
27162;DHT22;54464;50.558;9.704;2024-03-23T02:45:40;8.20;99.90
27162;DHT22;54464;50.558;9.704;2024-03-23T02:48:05;8.30;99.90
27162;DHT22;54464;50.558;9.704;2024-03-23T02:50:31;8.30;99.90
27162;DHT22;54464;50.558;9.704;2024-03-23T02:52:56;8.20;99.90
27162;DHT22;54464;50.558;9.704;2024-03-23T02:55:22;8.10;99.90
27162;DHT22;54464;50.558;9.704;2024-03-23T02:57:48;8.10;99.90
27162;DHT22;54464;50.558;9.704;2024-03-23T03:00:13;8.10;99.90
27162;DHT22;54464;50.558;9.704;2024-03-23T03:02:39;8.20;99.90
27162;DHT22;54464;50.558;9.704;2024-03-23T03:05:05;8.30;99.90
27162;DHT22;54464;50.558;9.704;2024-03-23T03:07:32;8.20;99.90
27162;DHT22;54464;50.558;9.704;2024-03-23T03:09:57;8.20;99.90
27162;DHT22;54464;50.558;9.704;2024-03-23T03:12:23;8.10;99.90
27162;DHT22;54464;50.558;9.704;2024-03-23T03:14:48;8.20;99.90
27162;DHT22;54464;50.558;9.704;2024-03-23T03:17:14;8.30;99.90
27162;DHT22;54464;50.558;9.704;2024-03-23T03:19:40;8.20;99.90
27162;DHT22;54464;50.558;9.704;2024-03-23T03:22:06;8.10;99.90
27162;DHT22;54464;50.558;9.704;2024-03-23T03:24:31;8.10;99.90
27162;DHT22;54464;50.558;9.704;2024-03-23T03:26:57;7.90;99.90
27162;DHT22;54464;50.558;9.704;2024-03-23T03:29:23;7.80;99.90
27162;DHT22;54464;50.558;9.704;2024-03-23T03:31:49;7.80;99.90
27162;DHT22;54464;50.558;9.704;2024-03-23T03:34:15;7.80;99.90
27162;DHT22;54464;50.558;9.704;2024-03-23T03:36:41;7.80;99.90
27162;DHT22;54464;50.558;9.704;2024-03-23T03:39:06;7.80;99.90
27162;DHT22;54464;50.558;9.704;2024-03-23T03:41:32;7.90;99.90
27162;DHT22;54464;50.558;9.704;2024-03-23T03:43:58;7.90;99.90
27162;DHT22;54464;50.558;9.704;2024-03-23T03:46:28;7.90;99.90
27162;DHT22;54464;50.558;9.704;2024-03-23T03:48:54;7.90;99.90
27162;DHT22;54464;50.558;9.704;2024-03-23T03:51:20;7.90;99.90
27162;DHT22;54464;50.558;9.704;2024-03-23T03:53:46;8.00;99.90
27162;DHT22;54464;50.558;9.704;2024-03-23T03:56:11;8.10;99.90
27162;DHT22;54464;50.558;9.704;2024-03-23T03:58:37;7.90;99.90
27162;DHT22;54464;50.558;9.704;2024-03-23T04:01:03;7.90;99.90
27162;DHT22;54464;50.558;9.704;2024-03-23T04:03:28;7.80;99.90
27162;DHT22;54464;50.558;9.704;2024-03-23T04:05:54;7.80;99.90
27162;DHT22;54464;50.558;9.704;2024-03-23T04:08:20;7.80;99.90
27162;DHT22;54464;50.558;9.704;2024-03-23T04:10:46;7.90;99.90
27162;DHT22;54464;50.558;9.704;2024-03-23T04:13:13;8.00;99.90
27162;DHT22;54464;50.558;9.704;2024-03-23T04:15:38;8.00;99.90
27162;DHT22;54464;50.558;9.704;2024-03-23T04:18:04;8.00;99.90
27162;DHT22;54464;50.558;9.704;2024-03-23T04:20:29;8.00;99.90
27162;DHT22;54464;50.558;9.704;2024-03-23T04:22:55;8.00;99.90
27162;DHT22;54464;50.558;9.704;2024-03-23T04:25:21;7.90;99.90
27162;DHT22;54464;50.558;9.704;2024-03-23T04:27:46;7.90;99.90
27162;DHT22;54464;50.558;9.704;2024-03-23T04:30:12;7.80;99.90
27162;DHT22;54464;50.558;9.704;2024-03-23T04:32:38;7.60;99.90
27162;DHT22;54464;50.558;9.704;2024-03-23T04:35:07;7.60;99.90
27162;DHT22;54464;50.558;9.704;2024-03-23T04:37:36;7.50;99.90
27162;DHT22;54464;50.558;9.704;2024-03-23T04:40:02;7.40;99.90
27162;DHT22;54464;50.558;9.704;2024-03-23T04:42:32;7.40;99.90
27162;DHT22;54464;50.558;9.704;2024-03-23T04:44:58;7.50;99.90
27162;DHT22;54464;50.558;9.704;2024-03-23T04:47:23;7.50;99.90
27162;DHT22;54464;50.558;9.704;2024-03-23T04:49:49;7.40;99.90
27162;DHT22;54464;50.558;9.704;2024-03-23T04:52:17;7.20;99.90
27162;DHT22;54464;50.558;9.704;2024-03-23T04:54:42;7.20;99.90
27162;DHT22;54464;50.558;9.704;2024-03-23T04:57:08;7.10;99.90
27162;DHT22;54464;50.558;9.704;2024-03-23T04:59:34;7.00;99.90
27162;DHT22;54464;50.558;9.704;2024-03-23T05:01:59;7.00;99.90
27162;DHT22;54464;50.558;9.704;2024-03-23T05:04:25;7.10;99.90
27162;DHT22;54464;50.558;9.704;2024-03-23T05:06:54;7.20;99.90
27162;DHT22;54464;50.558;9.704;2024-03-23T05:09:20;7.20;99.90
27162;DHT22;54464;50.558;9.704;2024-03-23T05:11:45;7.30;99.90
27162;DHT22;54464;50.558;9.704;2024-03-23T05:14:13;7.30;99.90
27162;DHT22;54464;50.558;9.704;2024-03-23T05:16:39;7.30;99.90
27162;DHT22;54464;50.558;9.704;2024-03-23T05:19:04;7.20;99.90
27162;DHT22;54464;50.558;9.704;2024-03-23T05:21:30;7.20;99.90
27162;DHT22;54464;50.558;9.704;2024-03-23T05:23:56;7.10;99.90
27162;DHT22;54464;50.558;9.704;2024-03-23T05:26:22;7.30;99.90
27162;DHT22;54464;50.558;9.704;2024-03-23T05:28:48;7.10;99.90
27162;DHT22;54464;50.558;9.704;2024-03-23T05:31:25;7.00;99.90
27162;DHT22;54464;50.558;9.704;2024-03-23T05:33:51;6.80;99.90
27162;DHT22;54464;50.558;9.704;2024-03-23T05:36:17;6.80;99.90
27162;DHT22;54464;50.558;9.704;2024-03-23T05:38:43;6.70;99.90
27162;DHT22;54464;50.558;9.704;2024-03-23T05:41:08;6.60;99.90
27162;DHT22;54464;50.558;9.704;2024-03-23T05:43:34;6.60;99.90
27162;DHT22;54464;50.558;9.704;2024-03-23T05:46:00;6.60;99.90
27162;DHT22;54464;50.558;9.704;2024-03-23T05:48:35;6.50;99.90
27162;DHT22;54464;50.558;9.704;2024-03-23T05:51:01;6.30;99.90
27162;DHT22;54464;50.558;9.704;2024-03-23T05:53:27;6.20;99.90
27162;DHT22;54464;50.558;9.704;2024-03-23T05:56:01;6.10;99.90
27162;DHT22;54464;50.558;9.704;2024-03-23T05:58:30;5.90;99.90
27162;DHT22;54464;50.558;9.704;2024-03-23T06:01:00;5.90;99.90
27162;DHT22;54464;50.558;9.704;2024-03-23T06:03:27;5.80;99.90
27162;DHT22;54464;50.558;9.704;2024-03-23T06:05:52;5.80;99.90
27162;DHT22;54464;50.558;9.704;2024-03-23T06:08:18;5.70;99.90
27162;DHT22;54464;50.558;9.704;2024-03-23T06:10:45;5.60;99.90
27162;DHT22;54464;50.558;9.704;2024-03-23T06:13:11;5.50;99.90
27162;DHT22;54464;50.558;9.704;2024-03-23T06:15:37;5.40;99.90
27162;DHT22;54464;50.558;9.704;2024-03-23T06:18:03;5.40;99.90
27162;DHT22;54464;50.558;9.704;2024-03-23T06:20:29;5.30;99.90
27162;DHT22;54464;50.558;9.704;2024-03-23T06:22:54;5.40;99.90
27162;DHT22;54464;50.558;9.704;2024-03-23T06:25:20;5.30;99.90
27162;DHT22;54464;50.558;9.704;2024-03-23T06:27:46;5.20;99.90
27162;DHT22;54464;50.558;9.704;2024-03-23T06:30:12;5.10;99.90
27162;DHT22;54464;50.558;9.704;2024-03-23T06:32:37;5.10;99.90
27162;DHT22;54464;50.558;9.704;2024-03-23T06:35:03;5.00;99.90
27162;DHT22;54464;50.558;9.704;2024-03-23T06:37:34;4.90;99.90
27162;DHT22;54464;50.558;9.704;2024-03-23T06:39:59;4.90;99.90
27162;DHT22;54464;50.558;9.704;2024-03-23T06:42:25;4.90;99.90
27162;DHT22;54464;50.558;9.704;2024-03-23T06:44:50;4.80;99.90
27162;DHT22;54464;50.558;9.704;2024-03-23T06:47:16;4.80;99.90
27162;DHT22;54464;50.558;9.704;2024-03-23T06:49:42;4.60;99.90
27162;DHT22;54464;50.558;9.704;2024-03-23T06:52:07;4.60;99.90
27162;DHT22;54464;50.558;9.704;2024-03-23T06:54:36;4.60;99.90
27162;DHT22;54464;50.558;9.704;2024-03-23T06:57:01;4.50;99.90
27162;DHT22;54464;50.558;9.704;2024-03-23T06:59:27;4.60;99.90
27162;DHT22;54464;50.558;9.704;2024-03-23T07:01:52;4.60;99.90
27162;DHT22;54464;50.558;9.704;2024-03-23T07:04:18;4.60;99.90
27162;DHT22;54464;50.558;9.704;2024-03-23T07:06:44;4.50;99.90
27162;DHT22;54464;50.558;9.704;2024-03-23T07:09:10;4.40;99.90
27162;DHT22;54464;50.558;9.704;2024-03-23T07:11:36;4.30;99.90
27162;DHT22;54464;50.558;9.704;2024-03-23T07:14:02;4.30;99.90
27162;DHT22;54464;50.558;9.704;2024-03-23T07:16:31;4.20;99.90
27162;DHT22;54464;50.558;9.704;2024-03-23T07:18:56;4.20;99.90
27162;DHT22;54464;50.558;9.704;2024-03-23T07:21:22;4.20;99.90
27162;DHT22;54464;50.558;9.704;2024-03-23T07:23:47;4.30;99.90
27162;DHT22;54464;50.558;9.704;2024-03-23T07:26:13;4.40;99.90
27162;DHT22;54464;50.558;9.704;2024-03-23T07:28:39;4.50;99.90
27162;DHT22;54464;50.558;9.704;2024-03-23T07:31:13;4.50;99.90
27162;DHT22;54464;50.558;9.704;2024-03-23T07:33:44;4.50;99.90
27162;DHT22;54464;50.558;9.704;2024-03-23T07:36:10;4.50;99.90
27162;DHT22;54464;50.558;9.704;2024-03-23T07:38:36;4.50;99.90
27162;DHT22;54464;50.558;9.704;2024-03-23T07:41:16;4.50;99.90
27162;DHT22;54464;50.558;9.704;2024-03-23T07:43:45;4.50;99.90
27162;DHT22;54464;50.558;9.704;2024-03-23T07:46:11;4.40;99.90
27162;DHT22;54464;50.558;9.704;2024-03-23T07:48:37;4.40;99.90
27162;DHT22;54464;50.558;9.704;2024-03-23T07:53:34;4.50;99.90
27162;DHT22;54464;50.558;9.704;2024-03-23T07:56:07;4.40;99.90
27162;DHT22;54464;50.558;9.704;2024-03-23T07:58:34;4.50;99.90
27162;DHT22;54464;50.558;9.704;2024-03-23T08:01:08;4.50;99.90
27162;DHT22;54464;50.558;9.704;2024-03-23T08:03:34;4.70;99.90
27162;DHT22;54464;50.558;9.704;2024-03-23T08:06:26;4.60;99.90
27162;DHT22;54464;50.558;9.704;2024-03-23T08:08:54;4.50;99.90
27162;DHT22;54464;50.558;9.704;2024-03-23T08:11:33;4.60;99.90
27162;DHT22;54464;50.558;9.704;2024-03-23T08:14:00;4.50;99.90
27162;DHT22;54464;50.558;9.704;2024-03-23T08:16:26;4.50;99.90
27162;DHT22;54464;50.558;9.704;2024-03-23T08:18:52;4.50;99.90
27162;DHT22;54464;50.558;9.704;2024-03-23T08:21:18;4.50;99.90
27162;DHT22;54464;50.558;9.704;2024-03-23T08:23:44;4.60;99.90
27162;DHT22;54464;50.558;9.704;2024-03-23T08:26:12;4.50;99.90
27162;DHT22;54464;50.558;9.704;2024-03-23T08:28:38;4.60;99.90
27162;DHT22;54464;50.558;9.704;2024-03-23T08:31:07;4.60;99.90
27162;DHT22;54464;50.558;9.704;2024-03-23T08:33:33;4.70;99.90
27162;DHT22;54464;50.558;9.704;2024-03-23T08:36:01;4.60;99.90
27162;DHT22;54464;50.558;9.704;2024-03-23T08:38:27;4.60;99.90
27162;DHT22;54464;50.558;9.704;2024-03-23T08:43:23;4.90;99.90
27162;DHT22;54464;50.558;9.704;2024-03-23T08:45:48;4.80;99.90
27162;DHT22;54464;50.558;9.704;2024-03-23T08:48:14;4.70;99.90
27162;DHT22;54464;50.558;9.704;2024-03-23T08:50:40;4.50;99.90
27162;DHT22;54464;50.558;9.704;2024-03-23T08:53:05;4.70;99.90
27162;DHT22;54464;50.558;9.704;2024-03-23T08:55:31;4.70;99.90
27162;DHT22;54464;50.558;9.704;2024-03-23T08:57:56;4.70;99.90
27162;DHT22;54464;50.558;9.704;2024-03-23T09:00:22;4.80;99.90
27162;DHT22;54464;50.558;9.704;2024-03-23T09:02:48;5.00;99.90
27162;DHT22;54464;50.558;9.704;2024-03-23T09:05:14;4.90;99.90
27162;DHT22;54464;50.558;9.704;2024-03-23T09:07:39;4.90;99.90
27162;DHT22;54464;50.558;9.704;2024-03-23T09:10:06;4.80;99.90
27162;DHT22;54464;50.558;9.704;2024-03-23T09:12:31;4.90;99.90
27162;DHT22;54464;50.558;9.704;2024-03-23T09:14:57;4.90;99.90
27162;DHT22;54464;50.558;9.704;2024-03-23T09:17:22;4.90;99.90
27162;DHT22;54464;50.558;9.704;2024-03-23T09:19:48;5.00;99.90
27162;DHT22;54464;50.558;9.704;2024-03-23T09:22:14;5.00;99.90
27162;DHT22;54464;50.558;9.704;2024-03-23T09:24:40;5.00;99.90
27162;DHT22;54464;50.558;9.704;2024-03-23T09:27:06;5.00;99.90
27162;DHT22;54464;50.558;9.704;2024-03-23T09:29:31;5.00;99.90
27162;DHT22;54464;50.558;9.704;2024-03-23T09:31:57;5.00;99.90
27162;DHT22;54464;50.558;9.704;2024-03-23T09:34:22;4.90;99.90
27162;DHT22;54464;50.558;9.704;2024-03-23T09:36:51;5.00;99.90
27162;DHT22;54464;50.558;9.704;2024-03-23T09:39:17;5.10;99.90
27162;DHT22;54464;50.558;9.704;2024-03-23T09:41:43;5.10;99.90
27162;DHT22;54464;50.558;9.704;2024-03-23T09:44:09;5.10;99.90
27162;DHT22;54464;50.558;9.704;2024-03-23T09:46:35;5.00;99.90
27162;DHT22;54464;50.558;9.704;2024-03-23T09:49:02;5.20;99.90
27162;DHT22;54464;50.558;9.704;2024-03-23T09:51:30;5.10;99.90
27162;DHT22;54464;50.558;9.704;2024-03-23T09:53:56;5.20;99.90
27162;DHT22;54464;50.558;9.704;2024-03-23T09:56:22;5.20;99.90
27162;DHT22;54464;50.558;9.704;2024-03-23T09:58:49;5.20;99.90
27162;DHT22;54464;50.558;9.704;2024-03-23T10:01:14;5.40;99.90
27162;DHT22;54464;50.558;9.704;2024-03-23T10:03:46;5.30;99.90
27162;DHT22;54464;50.558;9.704;2024-03-23T10:06:12;5.30;99.90
27162;DHT22;54464;50.558;9.704;2024-03-23T10:08:38;5.50;99.90
27162;DHT22;54464;50.558;9.704;2024-03-23T10:11:16;5.50;99.90
27162;DHT22;54464;50.558;9.704;2024-03-23T10:13:43;5.60;99.90
27162;DHT22;54464;50.558;9.704;2024-03-23T10:16:09;5.60;99.90
27162;DHT22;54464;50.558;9.704;2024-03-23T10:18:41;5.60;99.90
27162;DHT22;54464;50.558;9.704;2024-03-23T10:21:07;5.60;99.90
27162;DHT22;54464;50.558;9.704;2024-03-23T10:23:35;5.60;99.90
27162;DHT22;54464;50.558;9.704;2024-03-23T10:26:19;5.60;99.90
27162;DHT22;54464;50.558;9.704;2024-03-23T10:31:18;5.50;99.90
27162;DHT22;54464;50.558;9.704;2024-03-23T10:33:45;5.40;99.90
27162;DHT22;54464;50.558;9.704;2024-03-23T10:36:12;5.40;99.90
27162;DHT22;54464;50.558;9.704;2024-03-23T10:38:43;5.20;99.90
27162;DHT22;54464;50.558;9.704;2024-03-23T10:41:09;5.20;99.90
27162;DHT22;54464;50.558;9.704;2024-03-23T10:43:36;5.20;99.90
27162;DHT22;54464;50.558;9.704;2024-03-23T10:46:03;5.40;99.90
27162;DHT22;54464;50.558;9.704;2024-03-23T10:48:28;5.60;99.90
27162;DHT22;54464;50.558;9.704;2024-03-23T10:50:54;6.10;99.90
27162;DHT22;54464;50.558;9.704;2024-03-23T10:53:22;6.20;99.90
27162;DHT22;54464;50.558;9.704;2024-03-23T10:55:51;6.50;99.90
27162;DHT22;54464;50.558;9.704;2024-03-23T10:58:19;7.20;99.90
27162;DHT22;54464;50.558;9.704;2024-03-23T11:00:47;7.40;99.90
27162;DHT22;54464;50.558;9.704;2024-03-23T11:05:57;7.30;99.90
27162;DHT22;54464;50.558;9.704;2024-03-23T11:08:36;7.10;99.90
27162;DHT22;54464;50.558;9.704;2024-03-23T11:11:18;7.40;99.90
27162;DHT22;54464;50.558;9.704;2024-03-23T11:13:47;7.40;99.90
27162;DHT22;54464;50.558;9.704;2024-03-23T11:16:17;7.30;99.90
27162;DHT22;54464;50.558;9.704;2024-03-23T11:18:46;7.30;99.90
27162;DHT22;54464;50.558;9.704;2024-03-23T11:24:16;7.10;99.90
27162;DHT22;54464;50.558;9.704;2024-03-23T11:26:41;7.00;99.90
27162;DHT22;54464;50.558;9.704;2024-03-23T11:29:11;6.90;99.90
27162;DHT22;54464;50.558;9.704;2024-03-23T11:31:38;6.70;99.90
27162;DHT22;54464;50.558;9.704;2024-03-23T11:34:06;6.80;99.90
27162;DHT22;54464;50.558;9.704;2024-03-23T11:36:32;6.80;99.90
27162;DHT22;54464;50.558;9.704;2024-03-23T11:38:58;6.80;99.90
27162;DHT22;54464;50.558;9.704;2024-03-23T11:41:23;7.10;99.90
27162;DHT22;54464;50.558;9.704;2024-03-23T11:43:50;7.20;99.90
27162;DHT22;54464;50.558;9.704;2024-03-23T11:46:24;7.10;99.90
27162;DHT22;54464;50.558;9.704;2024-03-23T11:48:50;7.10;99.90
27162;DHT22;54464;50.558;9.704;2024-03-23T11:51:20;6.90;99.90
27162;DHT22;54464;50.558;9.704;2024-03-23T11:53:45;7.00;99.90
27162;DHT22;54464;50.558;9.704;2024-03-23T11:56:11;5.10;99.90
27162;DHT22;54464;50.558;9.704;2024-03-23T11:58:36;4.50;99.90
27162;DHT22;54464;50.558;9.704;2024-03-23T12:01:03;4.20;99.90
27162;DHT22;54464;50.558;9.704;2024-03-23T12:03:29;4.20;99.90
27162;DHT22;54464;50.558;9.704;2024-03-23T12:05:57;4.20;99.90
27162;DHT22;54464;50.558;9.704;2024-03-23T12:11:15;5.00;99.90
27162;DHT22;54464;50.558;9.704;2024-03-23T12:13:41;5.40;99.90
27162;DHT22;54464;50.558;9.704;2024-03-23T12:16:18;5.60;99.90
27162;DHT22;54464;50.558;9.704;2024-03-23T12:18:47;5.80;99.90
27162;DHT22;54464;50.558;9.704;2024-03-23T12:21:13;6.20;99.90
27162;DHT22;54464;50.558;9.704;2024-03-23T12:23:41;6.60;99.90
27162;DHT22;54464;50.558;9.704;2024-03-23T12:26:08;7.20;99.90
27162;DHT22;54464;50.558;9.704;2024-03-23T12:28:34;7.90;99.90
27162;DHT22;54464;50.558;9.704;2024-03-23T12:30:59;8.00;99.90
27162;DHT22;54464;50.558;9.704;2024-03-23T12:33:25;7.40;99.90
27162;DHT22;54464;50.558;9.704;2024-03-23T12:35:51;7.00;99.90
27162;DHT22;54464;50.558;9.704;2024-03-23T12:38:17;7.10;99.90
27162;DHT22;54464;50.558;9.704;2024-03-23T12:40:50;6.80;99.90
27162;DHT22;54464;50.558;9.704;2024-03-23T12:43:16;6.70;99.90
27162;DHT22;54464;50.558;9.704;2024-03-23T12:45:46;7.00;99.90
27162;DHT22;54464;50.558;9.704;2024-03-23T12:48:12;7.30;99.90
27162;DHT22;54464;50.558;9.704;2024-03-23T12:50:38;7.20;99.90
27162;DHT22;54464;50.558;9.704;2024-03-23T12:53:03;7.00;99.90
27162;DHT22;54464;50.558;9.704;2024-03-23T12:55:29;6.90;99.90
27162;DHT22;54464;50.558;9.704;2024-03-23T12:57:54;6.80;99.90
27162;DHT22;54464;50.558;9.704;2024-03-23T13:00:20;6.50;99.90
27162;DHT22;54464;50.558;9.704;2024-03-23T13:02:46;6.00;99.90
27162;DHT22;54464;50.558;9.704;2024-03-23T13:05:11;5.60;99.90
27162;DHT22;54464;50.558;9.704;2024-03-23T13:07:37;5.70;99.90
27162;DHT22;54464;50.558;9.704;2024-03-23T13:10:04;5.60;99.90
27162;DHT22;54464;50.558;9.704;2024-03-23T13:12:31;5.60;99.90
27162;DHT22;54464;50.558;9.704;2024-03-23T13:14:58;5.60;99.90
27162;DHT22;54464;50.558;9.704;2024-03-23T13:17:24;5.70;99.90
27162;DHT22;54464;50.558;9.704;2024-03-23T13:19:50;5.80;99.90
27162;DHT22;54464;50.558;9.704;2024-03-23T13:22:16;5.90;99.90
27162;DHT22;54464;50.558;9.704;2024-03-23T13:24:41;6.00;99.90
27162;DHT22;54464;50.558;9.704;2024-03-23T13:27:08;6.00;99.90
27162;DHT22;54464;50.558;9.704;2024-03-23T13:29:34;6.00;99.90
27162;DHT22;54464;50.558;9.704;2024-03-23T13:32:03;5.90;99.90
27162;DHT22;54464;50.558;9.704;2024-03-23T13:34:29;6.00;99.90
27162;DHT22;54464;50.558;9.704;2024-03-23T13:36:55;5.90;99.90
27162;DHT22;54464;50.558;9.704;2024-03-23T13:39:23;5.90;99.90
27162;DHT22;54464;50.558;9.704;2024-03-23T13:41:49;5.90;99.90
27162;DHT22;54464;50.558;9.704;2024-03-23T13:44:15;5.90;99.90
27162;DHT22;54464;50.558;9.704;2024-03-23T13:46:42;5.80;99.90
27162;DHT22;54464;50.558;9.704;2024-03-23T13:49:30;5.30;99.90
27162;DHT22;54464;50.558;9.704;2024-03-23T13:51:57;5.00;99.90
27162;DHT22;54464;50.558;9.704;2024-03-23T13:54:24;4.80;99.90
27162;DHT22;54464;50.558;9.704;2024-03-23T13:56:50;4.70;99.90
27162;DHT22;54464;50.558;9.704;2024-03-23T13:59:16;4.60;99.90
27162;DHT22;54464;50.558;9.704;2024-03-23T14:01:42;4.60;99.90
27162;DHT22;54464;50.558;9.704;2024-03-23T14:04:08;4.60;99.90
27162;DHT22;54464;50.558;9.704;2024-03-23T14:06:34;4.50;99.90
27162;DHT22;54464;50.558;9.704;2024-03-23T14:08:59;4.60;99.90
27162;DHT22;54464;50.558;9.704;2024-03-23T14:11:25;4.60;99.90
27162;DHT22;54464;50.558;9.704;2024-03-23T14:13:52;4.50;99.90
27162;DHT22;54464;50.558;9.704;2024-03-23T14:16:18;4.40;99.90
27162;DHT22;54464;50.558;9.704;2024-03-23T14:18:46;4.30;99.90
27162;DHT22;54464;50.558;9.704;2024-03-23T14:21:12;4.40;99.90
27162;DHT22;54464;50.558;9.704;2024-03-23T14:23:37;4.50;99.90
27162;DHT22;54464;50.558;9.704;2024-03-23T14:26:03;4.60;99.90
27162;DHT22;54464;50.558;9.704;2024-03-23T14:28:29;4.50;99.90
27162;DHT22;54464;50.558;9.704;2024-03-23T14:30:55;4.60;99.90
27162;DHT22;54464;50.558;9.704;2024-03-23T14:33:21;4.50;99.90
27162;DHT22;54464;50.558;9.704;2024-03-23T14:35:57;4.50;99.90
27162;DHT22;54464;50.558;9.704;2024-03-23T14:38:23;4.50;99.90
27162;DHT22;54464;50.558;9.704;2024-03-23T14:40:49;4.50;99.90
27162;DHT22;54464;50.558;9.704;2024-03-23T14:43:15;4.50;99.90
27162;DHT22;54464;50.558;9.704;2024-03-23T14:46:12;4.50;99.90
27162;DHT22;54464;50.558;9.704;2024-03-23T14:48:42;4.50;99.90
27162;DHT22;54464;50.558;9.704;2024-03-23T14:51:08;4.60;99.90
27162;DHT22;54464;50.558;9.704;2024-03-23T14:53:38;4.70;99.90
27162;DHT22;54464;50.558;9.704;2024-03-23T14:56:06;4.80;99.90
27162;DHT22;54464;50.558;9.704;2024-03-23T14:58:32;4.90;99.90
27162;DHT22;54464;50.558;9.704;2024-03-23T15:01:01;5.00;99.90
27162;DHT22;54464;50.558;9.704;2024-03-23T15:03:27;5.10;99.90
27162;DHT22;54464;50.558;9.704;2024-03-23T15:05:54;5.10;99.90
27162;DHT22;54464;50.558;9.704;2024-03-23T15:08:19;5.40;99.90
27162;DHT22;54464;50.558;9.704;2024-03-23T15:10:45;5.50;99.90
27162;DHT22;54464;50.558;9.704;2024-03-23T15:13:10;5.40;99.90
27162;DHT22;54464;50.558;9.704;2024-03-23T15:15:43;5.60;99.90
27162;DHT22;54464;50.558;9.704;2024-03-23T15:18:13;5.40;99.90
27162;DHT22;54464;50.558;9.704;2024-03-23T15:20:41;5.30;99.90
27162;DHT22;54464;50.558;9.704;2024-03-23T15:23:06;5.30;99.90
27162;DHT22;54464;50.558;9.704;2024-03-23T15:25:32;5.20;99.90
27162;DHT22;54464;50.558;9.704;2024-03-23T15:27:58;5.00;99.90
27162;DHT22;54464;50.558;9.704;2024-03-23T15:30:26;4.90;99.90
27162;DHT22;54464;50.558;9.704;2024-03-23T15:32:51;4.90;99.90
27162;DHT22;54464;50.558;9.704;2024-03-23T15:35:17;4.90;99.90
27162;DHT22;54464;50.558;9.704;2024-03-23T15:37:44;4.80;99.90
27162;DHT22;54464;50.558;9.704;2024-03-23T15:40:10;4.80;99.90
27162;DHT22;54464;50.558;9.704;2024-03-23T15:42:36;4.50;99.90
27162;DHT22;54464;50.558;9.704;2024-03-23T15:45:02;4.20;99.90
27162;DHT22;54464;50.558;9.704;2024-03-23T15:47:29;4.20;99.90
27162;DHT22;54464;50.558;9.704;2024-03-23T15:49:54;4.20;99.90
27162;DHT22;54464;50.558;9.704;2024-03-23T15:52:21;4.20;99.90
27162;DHT22;54464;50.558;9.704;2024-03-23T15:54:46;4.20;99.90
27162;DHT22;54464;50.558;9.704;2024-03-23T15:57:12;4.20;99.90
27162;DHT22;54464;50.558;9.704;2024-03-23T15:59:40;4.40;99.90
27162;DHT22;54464;50.558;9.704;2024-03-23T16:02:06;4.30;99.90
27162;DHT22;54464;50.558;9.704;2024-03-23T16:04:32;4.30;99.90
27162;DHT22;54464;50.558;9.704;2024-03-23T16:06:57;4.20;99.90
27162;DHT22;54464;50.558;9.704;2024-03-23T16:09:23;4.20;99.90
27162;DHT22;54464;50.558;9.704;2024-03-23T16:11:49;4.10;99.90
27162;DHT22;54464;50.558;9.704;2024-03-23T16:14:14;4.10;99.90
27162;DHT22;54464;50.558;9.704;2024-03-23T16:16:43;4.00;99.90
27162;DHT22;54464;50.558;9.704;2024-03-23T16:19:08;4.00;99.90
27162;DHT22;54464;50.558;9.704;2024-03-23T16:21:34;4.00;99.90
27162;DHT22;54464;50.558;9.704;2024-03-23T16:23:59;4.20;99.90
27162;DHT22;54464;50.558;9.704;2024-03-23T16:26:25;4.20;99.90
27162;DHT22;54464;50.558;9.704;2024-03-23T16:28:50;4.00;99.90
27162;DHT22;54464;50.558;9.704;2024-03-23T16:31:16;3.90;99.90
27162;DHT22;54464;50.558;9.704;2024-03-23T16:33:42;3.90;99.90
27162;DHT22;54464;50.558;9.704;2024-03-23T16:36:09;3.90;99.90
27162;DHT22;54464;50.558;9.704;2024-03-23T16:38:36;3.90;99.90
27162;DHT22;54464;50.558;9.704;2024-03-23T16:41:06;3.80;99.90
27162;DHT22;54464;50.558;9.704;2024-03-23T16:43:33;3.70;99.90
27162;DHT22;54464;50.558;9.704;2024-03-23T16:46:06;3.70;99.90
27162;DHT22;54464;50.558;9.704;2024-03-23T16:48:33;3.70;99.90
27162;DHT22;54464;50.558;9.704;2024-03-23T16:51:02;3.70;99.90